• pl
  • eng

Awiacja
WIADOMOŚCI
ostatnia aktualizacja: 26.03.2018 14:15
Szanowni Państwo,

uprzejmie informujemy, że od dnia 29 marca br., od godziny 08.30 UTC, IMGW-PIB wprowadza zmianę częstotliwości wydawania prognoz TAF FT dla lotnisk EPWA, EPKK i EPWR. Od tego terminu prognozy będą publikowane co 3 godziny. Okres ich ważności nie ulega zmianie.

Kliknij na pogrubioną czerwoną nazwę, aby odkodować depeszę. 06:01 24.04.2018
  • WIND
  • SIGNIFICANT EURO
  • SIGNIFICANT
  • SIGMET
  • AIRMET
  • TAF FC
  • TAF FT
  • METAR GG30
  • METAR GG00


METAR EPBY 240400Z 23002KT 9999 SCT044 05/05 Q1014 =

METAR EPGD 240400Z 26007KT CAVOK 06/04 Q1011 =

METAR EPKK 240400Z 22006KT 6000 BKN010 13/12 Q1015 =

METAR EPKT 240400Z 29004KT 260V320 2400 BR SCT002 OVC003 12/11 Q1015
=

METAR EPLB 240400Z 32006KT 9999 OVC012 13/12 Q1012 =

METAR EPLL 240400Z 23003KT 6000 BKN044 09/09 Q1014 =

METAR EPMO 240400Z 26007KT CAVOK 09/09 Q1013 =

METAR EPPO 240400Z 19004KT 9999 BKN035 10/09 Q1014 R10/290095 =

METAR EPRA 240400Z 31006KT 9000 BKN012 12/12 Q1013=

METAR EPRZ 240400Z 26009KT 9999 SCT046 14/12 Q1013 =

METAR EPSC 240400Z 19003KT CAVOK 08/03 Q1013 =

METAR EPSY 240400Z 24006KT 8000 NSC 07/07 Q1012=

METAR EPWA 240400Z 30006KT CAVOK 11/08 Q1013 NOSIG=

METAR EPWR 240400Z 26003KT 6000 0900SW BCFG NSC 09/08 Q1015 =

METAR EPZG 240400Z 21003KT 1400 R24/2000N BCFG BR NSC 08/07 Q1014 =
 METAR COR EPSY
Lokalizacja:
Czas::
Średnia prędkość wiatru: węzłów
Widzialność:0 metrów
Awiacja.imgw.pl jest pogodowym serwisem informacyjnym
Instytutu Meteorologii i Gospodarki Wodnej Państwowego Instytutu Badawczego.
Copyright IMGW PIB 2009-2011© Wszelkie prawa zastrzeżone.